createdAt,value
2018-01-11T00:00:18.635Z,47.27
2018-01-11T00:02:46.623Z,26.30
2018-01-11T00:05:14.480Z,38.90
2018-01-11T00:07:52.378Z,34.83
2018-01-11T00:10:21.386Z,42.60
2018-01-11T00:12:49.265Z,35.87
2018-01-11T00:15:17.135Z,38.83
2018-01-11T00:17:50.008Z,30.27
2018-01-11T00:20:18.911Z,29.60
2018-01-11T00:22:48.826Z,27.30
2018-01-11T00:25:20.075Z,26.13
2018-01-11T00:30:23.290Z,21.67
2018-01-11T00:32:51.173Z,28.80
2018-01-11T00:35:18.998Z,33.47
2018-01-11T00:37:46.767Z,26.10
2018-01-11T00:43:12.191Z,21.10
2018-01-11T00:45:40.063Z,36.43
2018-01-11T00:48:11.715Z,33.87
2018-01-11T00:50:39.683Z,38.10
2018-01-11T00:53:07.457Z,28.60
2018-01-11T00:55:35.208Z,20.00
2018-01-11T00:58:04.816Z,40.47
2018-01-11T01:00:32.707Z,18.20
2018-01-11T01:03:00.479Z,20.17
2018-01-11T01:05:28.257Z,24.27
2018-01-11T01:07:56.132Z,21.33
2018-01-11T01:10:23.984Z,23.67
2018-01-11T01:12:53.453Z,33.60
2018-01-11T01:15:21.369Z,20.57
2018-01-11T01:17:49.389Z,17.43
2018-01-11T01:20:17.511Z,13.47
2018-01-11T01:22:45.499Z,24.87
2018-01-11T01:25:13.988Z,19.07
2018-01-11T01:27:41.915Z,14.17
2018-01-11T01:30:09.671Z,22.43
2018-01-11T01:32:39.081Z,19.10
2018-01-11T01:35:08.703Z,14.43
2018-01-11T01:37:36.612Z,15.97
2018-01-11T01:40:04.488Z,20.90
2018-01-11T01:42:32.349Z,15.60
2018-01-11T01:45:00.212Z,12.97
2018-01-11T01:47:28.710Z,14.50
2018-01-11T01:49:58.278Z,19.07
2018-01-11T01:52:26.270Z,18.33
2018-01-11T01:54:54.038Z,15.20
2018-01-11T01:57:28.119Z,16.47
2018-01-11T01:59:56.663Z,19.13
2018-01-11T02:02:26.471Z,12.40
2018-01-11T02:04:54.353Z,22.90
2018-01-11T02:07:22.928Z,19.23
2018-01-11T02:09:50.798Z,15.20
2018-01-11T02:12:18.767Z,17.97
2018-01-11T02:14:47.373Z,18.20
2018-01-11T02:17:22.865Z,17.60
2018-01-11T02:19:53.357Z,30.03
2018-01-11T02:22:21.297Z,14.70
2018-01-11T02:24:53.675Z,16.30
2018-01-11T02:27:35.834Z,15.40
2018-01-11T02:30:04.354Z,15.03
2018-01-11T02:32:55.328Z,11.50
2018-01-11T02:35:23.218Z,15.20
2018-01-11T02:37:52.804Z,15.60
2018-01-11T02:40:22.492Z,16.80
2018-01-11T02:42:50.412Z,19.27
2018-01-11T02:45:18.172Z,14.30
2018-01-11T02:47:48.900Z,18.23
2018-01-11T02:50:33.960Z,17.10
2018-01-11T02:53:01.736Z,17.03
2018-01-11T02:55:31.215Z,16.93
2018-01-11T02:57:59.232Z,22.70
2018-01-11T03:00:31.775Z,13.53
2018-01-11T03:02:59.686Z,17.13
2018-01-11T03:05:36.548Z,15.10
2018-01-11T03:08:07.335Z,16.00
2018-01-11T03:10:35.136Z,19.53
2018-01-11T03:13:02.871Z,15.47
2018-01-11T03:15:30.692Z,13.47
2018-01-11T03:17:58.441Z,14.30
2018-01-11T03:20:28.924Z,16.40
2018-01-11T03:22:58.916Z,17.23
2018-01-11T03:25:27.814Z,14.13
2018-01-11T03:28:00.206Z,15.03
2018-01-11T03:30:28.062Z,15.07
2018-01-11T03:32:57.286Z,15.53
2018-01-11T03:35:25.849Z,19.70
2018-01-11T03:37:55.375Z,16.87
2018-01-11T03:40:36.108Z,17.93
2018-01-11T03:43:03.870Z,21.80
2018-01-11T03:45:32.842Z,19.57
2018-01-11T03:48:03.333Z,15.30
2018-01-11T03:50:33.324Z,22.10
2018-01-11T03:53:01.834Z,17.00
2018-01-11T03:55:31.406Z,15.67
2018-01-11T03:58:00.011Z,19.40
2018-01-11T04:00:27.846Z,16.73
2018-01-11T04:02:55.580Z,16.50
2018-01-11T04:05:25.207Z,16.00
2018-01-11T04:07:53.100Z,16.20
2018-01-11T04:10:21.190Z,17.80
2018-01-11T04:12:49.542Z,22.37
2018-01-11T04:15:17.290Z,20.30
2018-01-11T04:17:45.826Z,17.23
2018-01-11T04:20:13.590Z,27.50
2018-01-11T04:22:41.444Z,15.70
2018-01-11T04:25:24.154Z,18.73
2018-01-11T04:27:53.748Z,27.03
2018-01-11T04:30:23.538Z,20.60
2018-01-11T04:32:52.190Z,22.80
2018-01-11T04:35:19.966Z,22.23
2018-01-11T04:37:49.240Z,19.67
2018-01-11T04:40:23.296Z,17.17
2018-01-11T04:42:52.286Z,17.87
2018-01-11T04:45:21.540Z,21.53
2018-01-11T04:47:53.712Z,17.43
2018-01-11T04:50:25.296Z,17.53
2018-01-11T04:53:16.266Z,27.93
2018-01-11T04:55:45.693Z,21.40
2018-01-11T04:58:15.265Z,19.90
2018-01-11T05:00:48.679Z,23.17
2018-01-11T05:05:50.250Z,22.10
2018-01-11T05:08:24.364Z,21.13
2018-01-11T05:10:52.326Z,17.37
2018-01-11T05:13:26.768Z,20.30
2018-01-11T05:15:54.768Z,20.50
2018-01-11T05:18:23.338Z,21.80
2018-01-11T05:20:52.900Z,29.17
2018-01-11T05:23:23.300Z,30.80
2018-01-11T05:25:53.090Z,22.07
2018-01-11T05:28:22.671Z,18.83
2018-01-11T05:30:50.563Z,21.83
2018-01-11T05:33:22.661Z,23.30
2018-01-11T05:35:50.596Z,25.57
2018-01-11T05:38:20.010Z,25.97
2018-01-11T05:40:47.898Z,19.57
2018-01-11T05:43:16.457Z,31.60
2018-01-11T05:45:44.207Z,27.20
2018-01-11T05:48:17.769Z,20.33
2018-01-11T05:50:45.705Z,31.00
2018-01-11T05:53:15.231Z,23.87
2018-01-11T05:55:45.439Z,23.23
2018-01-11T05:58:13.409Z,27.50
2018-01-11T06:00:44.461Z,27.80
2018-01-11T06:03:12.321Z,26.40
2018-01-11T06:05:41.066Z,24.80
2018-01-11T06:08:11.790Z,21.90
2018-01-11T06:10:39.705Z,24.90
2018-01-11T06:13:07.573Z,23.50
2018-01-11T06:15:35.437Z,29.77
2018-01-11T06:18:03.213Z,30.37
2018-01-11T06:20:32.592Z,26.23
2018-01-11T06:23:00.608Z,28.30
2018-01-11T06:25:29.083Z,27.13
2018-01-11T06:27:57.877Z,28.63
2018-01-11T06:30:29.659Z,34.30
2018-01-11T06:33:05.588Z,29.03
2018-01-11T06:35:34.189Z,28.30
2018-01-11T06:38:02.048Z,40.53
2018-01-11T06:40:31.969Z,27.83
2018-01-11T06:43:02.916Z,24.93
2018-01-11T06:45:30.989Z,24.13
2018-01-11T06:47:58.750Z,31.93
2018-01-11T06:50:26.617Z,24.37
2018-01-11T06:52:56.005Z,29.40
2018-01-11T06:55:25.986Z,26.70
2018-01-11T06:57:53.906Z,37.20
2018-01-11T07:00:39.888Z,26.10
2018-01-11T07:03:07.885Z,26.70
2018-01-11T07:05:35.735Z,21.60
2018-01-11T07:08:08.003Z,34.17
2018-01-11T07:10:38.741Z,29.37
2018-01-11T07:13:07.323Z,33.63
2018-01-11T07:15:41.848Z,29.80
2018-01-11T07:18:13.503Z,20.23
2018-01-11T07:20:41.493Z,32.27
2018-01-11T07:23:09.251Z,30.30
2018-01-11T07:25:38.919Z,26.70
2018-01-11T07:28:06.817Z,28.30
2018-01-11T07:30:34.984Z,29.53
2018-01-11T07:33:14.848Z,28.30
2018-01-11T07:35:42.937Z,25.83
2018-01-11T07:38:12.261Z,29.33
2018-01-11T07:40:42.323Z,22.70
2018-01-11T07:43:12.061Z,20.00
2018-01-11T07:48:14.947Z,18.70
2018-01-11T07:50:42.829Z,21.23
2018-01-11T07:53:11.697Z,22.33
2018-01-11T07:55:42.370Z,21.83
2018-01-11T07:58:10.222Z,25.27
2018-01-11T08:00:38.094Z,20.50
2018-01-11T08:03:09.769Z,23.40
2018-01-11T08:05:37.535Z,21.67
2018-01-11T08:10:38.052Z,17.97
2018-01-11T08:13:05.955Z,17.50
2018-01-11T08:15:40.155Z,17.77
2018-01-11T08:18:08.346Z,20.20
2018-01-11T08:20:36.227Z,30.13
2018-01-11T08:23:04.120Z,19.07
2018-01-11T08:25:31.953Z,18.93
2018-01-11T08:28:03.482Z,21.37
2018-01-11T08:30:31.433Z,20.93
2018-01-11T08:32:59.455Z,16.80
2018-01-11T08:35:27.323Z,20.20
2018-01-11T08:37:56.205Z,19.37
2018-01-11T08:40:38.517Z,19.17
2018-01-11T08:43:08.953Z,23.47
2018-01-11T08:45:42.909Z,24.40
2018-01-11T08:48:10.722Z,26.43
2018-01-11T08:50:38.574Z,28.07
2018-01-11T08:53:08.181Z,27.17
2018-01-11T08:55:37.762Z,28.67
2018-01-11T08:58:07.477Z,28.00
2018-01-11T09:00:35.293Z,23.20
2018-01-11T09:03:04.860Z,29.10
2018-01-11T09:05:32.872Z,22.27
2018-01-11T09:08:03.994Z,23.87
2018-01-11T09:10:38.327Z,21.03
2018-01-11T09:13:07.316Z,23.50
2018-01-11T09:15:37.362Z,24.13
2018-01-11T09:18:05.333Z,27.20
2018-01-11T09:20:33.182Z,22.70
2018-01-11T09:23:02.815Z,24.80
2018-01-11T09:25:34.658Z,29.27
2018-01-11T09:28:03.263Z,33.53
2018-01-11T09:30:31.853Z,28.40
2018-01-11T09:33:09.176Z,31.23
2018-01-11T09:35:37.075Z,31.10
2018-01-11T09:38:16.351Z,32.97
2018-01-11T09:40:44.197Z,29.07
2018-01-11T09:43:13.807Z,32.03
2018-01-11T09:45:43.378Z,35.43
2018-01-11T09:48:14.864Z,31.60
2018-01-11T09:50:44.468Z,35.77
2018-01-11T09:53:12.550Z,33.00
2018-01-11T09:55:45.214Z,35.30
2018-01-11T09:58:22.111Z,31.07
2018-01-11T10:00:49.872Z,36.70
2018-01-11T10:03:38.725Z,30.50
2018-01-11T10:06:06.564Z,31.43
2018-01-11T10:08:34.467Z,30.33
2018-01-11T10:11:04.022Z,31.47
2018-01-11T10:13:31.959Z,29.27
2018-01-11T10:15:59.820Z,32.00
2018-01-11T10:18:29.308Z,35.13
2018-01-11T10:20:57.194Z,21.67
2018-01-11T10:23:25.019Z,27.43
2018-01-11T10:25:53.042Z,24.10
2018-01-11T10:28:20.836Z,25.50
2018-01-11T10:30:48.806Z,24.37
2018-01-11T10:36:09.799Z,26.53
2018-01-11T10:38:39.374Z,30.57
2018-01-11T10:41:10.446Z,24.33
2018-01-11T10:43:39.128Z,28.60
2018-01-11T10:46:06.990Z,25.07
2018-01-11T10:48:36.574Z,24.97
2018-01-11T10:51:04.465Z,28.63
2018-01-11T10:53:33.567Z,26.70
2018-01-11T10:56:02.188Z,27.30
2018-01-11T10:58:42.813Z,24.70
2018-01-11T11:01:24.470Z,27.40
2018-01-11T11:03:52.313Z,23.57
2018-01-11T11:06:22.252Z,26.67
2018-01-11T11:08:50.168Z,26.90
2018-01-11T11:11:20.592Z,28.47
2018-01-11T11:13:50.118Z,28.47
2018-01-11T11:16:17.981Z,30.43
2018-01-11T11:18:45.956Z,25.53
2018-01-11T11:21:17.516Z,26.20
2018-01-11T11:23:49.178Z,26.47
2018-01-11T11:26:30.034Z,35.10
2018-01-11T11:31:31.055Z,37.13
2018-01-11T11:34:00.498Z,38.13
2018-01-11T11:36:28.466Z,36.50
2018-01-11T11:38:56.545Z,41.33
2018-01-11T11:41:32.679Z,42.07
2018-01-11T11:44:00.676Z,37.83
2018-01-11T11:46:30.166Z,41.93
2018-01-11T11:48:58.037Z,46.93
2018-01-11T11:51:29.712Z,46.70
2018-01-11T11:54:00.151Z,43.57
2018-01-11T11:56:28.121Z,37.07
2018-01-11T11:58:56.060Z,40.97
2018-01-11T12:01:30.794Z,40.83
2018-01-11T12:03:58.564Z,44.70
2018-01-11T12:06:26.444Z,37.27
2018-01-11T12:08:54.419Z,40.80
2018-01-11T12:11:24.006Z,42.30
2018-01-11T12:13:52.928Z,42.30
2018-01-11T12:16:20.777Z,40.30
2018-01-11T12:18:48.668Z,43.50
2018-01-11T12:21:18.287Z,38.40
2018-01-11T12:23:46.641Z,40.30
2018-01-11T12:26:17.284Z,43.57
2018-01-11T12:28:50.132Z,39.20
2018-01-11T12:31:20.653Z,42.90
2018-01-11T12:33:48.575Z,39.03
2018-01-11T12:36:17.936Z,43.47
2018-01-11T12:38:45.836Z,32.90
2018-01-11T12:41:14.959Z,35.33
2018-01-11T12:43:42.798Z,42.73
2018-01-11T12:46:22.991Z,43.70
2018-01-11T12:48:50.945Z,46.50
2018-01-11T12:51:18.817Z,37.93
2018-01-11T12:53:49.363Z,42.40
2018-01-11T12:56:29.579Z,47.23
2018-01-11T12:58:57.356Z,44.20
2018-01-11T13:01:27.459Z,62.17
2018-01-11T13:03:55.283Z,42.70
2018-01-11T13:06:23.130Z,38.70
2018-01-11T13:08:55.828Z,47.27
2018-01-11T13:11:36.567Z,57.70
2018-01-11T13:14:04.321Z,38.87
2018-01-11T13:16:32.253Z,41.50
2018-01-11T13:19:00.197Z,42.13
2018-01-11T13:21:29.903Z,42.33
2018-01-11T13:23:57.867Z,38.57
2018-01-11T13:26:25.728Z,37.67
2018-01-11T13:28:55.757Z,42.07
2018-01-11T13:31:30.261Z,49.70
2018-01-11T13:34:00.237Z,51.70
2018-01-11T13:36:31.237Z,42.17
2018-01-11T13:39:01.150Z,42.50
2018-01-11T13:41:30.595Z,38.43
2018-01-11T13:44:00.381Z,34.30
2018-01-11T13:46:28.449Z,40.00
2018-01-11T13:48:56.338Z,50.10
2018-01-11T13:51:24.220Z,40.43
2018-01-11T13:53:54.759Z,50.10
2018-01-11T13:56:36.081Z,40.77
2018-01-11T13:59:03.879Z,39.50
2018-01-11T14:01:31.816Z,41.07
2018-01-11T14:03:59.767Z,39.60
2018-01-11T14:06:39.663Z,45.20
2018-01-11T14:09:07.574Z,40.20
2018-01-11T14:11:37.489Z,37.43
2018-01-11T14:14:05.335Z,46.73
2018-01-11T14:16:33.174Z,43.77
2018-01-11T14:19:12.609Z,40.60
2018-01-11T14:21:40.689Z,41.80
2018-01-11T14:24:08.673Z,40.50
2018-01-11T14:26:38.341Z,39.43
2018-01-11T14:29:06.226Z,39.97
2018-01-11T14:31:34.141Z,38.87
2018-01-11T14:34:02.079Z,36.77
2018-01-11T14:36:29.953Z,36.60
2018-01-11T14:38:58.521Z,37.77
2018-01-11T14:41:28.225Z,37.90
2018-01-11T14:43:57.927Z,42.63
2018-01-11T14:46:25.837Z,56.70
2018-01-11T14:48:53.717Z,41.67
2018-01-11T14:51:38.699Z,37.60
2018-01-11T14:54:06.749Z,41.23
2018-01-11T14:56:43.140Z,50.60
2018-01-11T14:59:12.103Z,47.70
2018-01-11T15:01:42.557Z,51.90
2018-01-11T15:04:19.316Z,39.33
2018-01-11T15:06:47.104Z,44.43
2018-01-11T15:09:16.745Z,42.90
2018-01-11T15:11:50.900Z,43.57
2018-01-11T15:14:18.878Z,43.00
2018-01-11T15:16:49.374Z,43.07
2018-01-11T15:19:17.281Z,52.70
2018-01-11T15:21:45.082Z,42.83
2018-01-11T15:24:25.666Z,40.37
2018-01-11T15:26:53.558Z,39.17
2018-01-11T15:29:21.429Z,44.57
2018-01-11T15:31:55.253Z,37.77
2018-01-11T15:34:32.031Z,43.27
2018-01-11T15:37:01.721Z,44.50
2018-01-11T15:39:29.722Z,42.87
2018-01-11T15:41:57.691Z,43.20
2018-01-11T15:44:25.539Z,46.17
2018-01-11T15:46:53.439Z,39.43
2018-01-11T15:49:33.478Z,36.20
2018-01-11T15:52:01.316Z,40.40
2018-01-11T15:54:29.080Z,37.47
2018-01-11T15:56:58.720Z,39.43
2018-01-11T15:59:37.235Z,36.27
2018-01-11T16:02:05.216Z,45.03
2018-01-11T16:04:34.686Z,39.10
2018-01-11T16:07:02.684Z,37.20
2018-01-11T16:09:32.096Z,41.30
2018-01-11T16:12:00.210Z,40.60
2018-01-11T16:14:28.025Z,45.70
2018-01-11T16:16:55.995Z,50.40
2018-01-11T16:19:29.325Z,54.33
2018-01-11T16:21:58.986Z,57.63
2018-01-11T16:24:40.593Z,42.77
2018-01-11T16:27:08.768Z,40.80
2018-01-11T16:29:36.627Z,49.53
2018-01-11T16:32:04.496Z,46.10
2018-01-11T16:34:32.367Z,53.43
2018-01-11T16:37:00.255Z,43.37
2018-01-11T16:39:28.100Z,43.60
2018-01-11T16:41:56.098Z,37.83
2018-01-11T16:44:23.971Z,40.53
2018-01-11T16:46:53.641Z,40.07
2018-01-11T16:49:21.649Z,43.03
2018-01-11T16:51:49.665Z,43.23
2018-01-11T16:54:24.870Z,46.63
2018-01-11T16:56:54.404Z,38.40
2018-01-11T16:59:23.995Z,44.73
2018-01-11T17:01:52.057Z,40.27
2018-01-11T17:04:20.406Z,45.00
2018-01-11T17:06:50.054Z,40.37
2018-01-11T17:09:18.118Z,45.63
2018-01-11T17:11:46.096Z,46.23
2018-01-11T17:14:16.199Z,40.80
2018-01-11T17:16:43.923Z,43.90
2018-01-11T17:19:11.746Z,41.63
2018-01-11T17:21:40.445Z,43.40
2018-01-11T17:24:09.426Z,41.30
2018-01-11T17:26:37.316Z,41.67
2018-01-11T17:29:05.172Z,44.27
2018-01-11T17:31:34.805Z,45.10
2018-01-11T17:34:02.866Z,42.83
2018-01-11T17:36:31.443Z,36.17
2018-01-11T17:38:59.303Z,46.50
2018-01-11T17:41:29.089Z,41.83
2018-01-11T17:43:57.002Z,54.10
2018-01-11T17:46:24.868Z,47.33
2018-01-11T17:48:52.642Z,38.87
2018-01-11T17:51:23.138Z,37.83
2018-01-11T17:53:53.662Z,40.97
2018-01-11T17:56:21.779Z,41.10
2018-01-11T17:58:52.401Z,48.67
2018-01-11T18:01:20.244Z,45.67
2018-01-11T18:03:48.064Z,45.00
2018-01-11T18:06:16.825Z,44.80
2018-01-11T18:08:45.313Z,48.63
2018-01-11T18:11:13.118Z,48.10
2018-01-11T18:13:42.877Z,40.83
2018-01-11T18:16:10.978Z,41.37
2018-01-11T18:18:38.905Z,39.10
2018-01-11T18:21:08.482Z,44.70
2018-01-11T18:23:36.482Z,62.30
2018-01-11T18:26:05.043Z,50.80
2018-01-11T18:28:34.509Z,50.53
2018-01-11T18:31:05.141Z,40.37
2018-01-11T18:33:39.064Z,39.33
2018-01-11T18:36:07.188Z,41.50
2018-01-11T18:38:37.868Z,44.40
2018-01-11T18:41:05.885Z,40.13
2018-01-11T18:43:33.835Z,51.40
2018-01-11T18:46:02.448Z,44.90
2018-01-11T18:48:32.967Z,44.53
2018-01-11T18:51:04.872Z,44.80
2018-01-11T18:53:36.183Z,45.83
2018-01-11T18:56:05.445Z,43.90
2018-01-11T18:58:34.249Z,37.50
2018-01-11T19:01:03.458Z,42.70
2018-01-11T19:03:31.340Z,38.30
2018-01-11T19:05:59.472Z,41.17
2018-01-11T19:08:27.284Z,36.93
2018-01-11T19:10:55.172Z,48.00
2018-01-11T19:13:26.371Z,43.37
2018-01-11T19:15:57.792Z,37.80
2018-01-11T19:18:25.843Z,43.27
2018-01-11T19:20:54.374Z,42.40
2018-01-11T19:23:22.276Z,50.67
2018-01-11T19:25:50.660Z,44.60
2018-01-11T19:28:19.666Z,45.80
2018-01-11T19:30:48.338Z,47.10
2018-01-11T19:33:16.320Z,43.67
2018-01-11T19:35:44.389Z,44.30
2018-01-11T19:38:12.321Z,42.30
2018-01-11T19:40:40.554Z,43.30
2018-01-11T19:43:11.107Z,46.73
2018-01-11T19:45:39.248Z,50.23
2018-01-11T19:48:08.524Z,52.80
2018-01-11T19:50:36.637Z,49.60
2018-01-11T19:53:06.580Z,50.53
2018-01-11T19:55:36.961Z,47.90
2018-01-11T19:58:05.263Z,49.90
2018-01-11T20:00:33.391Z,45.70
2018-01-11T20:03:01.510Z,44.23
2018-01-11T20:05:29.728Z,42.80
2018-01-11T20:07:58.654Z,44.83
2018-01-11T20:10:27.658Z,38.13
2018-01-11T20:12:55.698Z,38.70
2018-01-11T20:15:23.730Z,44.20
2018-01-11T20:17:52.568Z,40.97
2018-01-11T20:20:23.760Z,37.70
2018-01-11T20:22:53.641Z,45.20
2018-01-11T20:25:25.523Z,47.60
2018-01-11T20:27:55.378Z,53.80
2018-01-11T20:30:23.615Z,46.77
2018-01-11T20:32:54.786Z,42.37
2018-01-11T20:35:22.966Z,47.47
2018-01-11T20:37:51.033Z,44.80
2018-01-11T20:40:19.210Z,44.60
2018-01-11T20:42:48.874Z,48.07
2018-01-11T20:45:18.747Z,43.03
2018-01-11T20:47:46.738Z,44.50
2018-01-11T20:50:19.493Z,42.33
2018-01-11T20:52:50.845Z,43.40
2018-01-11T20:55:22.861Z,42.80
2018-01-11T20:57:51.946Z,39.80
2018-01-11T21:00:20.076Z,37.70
2018-01-11T21:02:50.368Z,40.73
2018-01-11T21:05:23.956Z,37.60
2018-01-11T21:07:53.712Z,44.73
2018-01-11T21:10:21.868Z,48.40
2018-01-11T21:12:50.208Z,40.73
2018-01-11T21:15:19.690Z,42.97
2018-01-11T21:17:47.839Z,44.87
2018-01-11T21:20:18.483Z,38.90
2018-01-11T21:22:46.565Z,43.03
2018-01-11T21:25:15.314Z,42.10
2018-01-11T21:27:43.139Z,39.80
2018-01-11T21:30:12.056Z,39.87
2018-01-11T21:32:40.832Z,36.20
2018-01-11T21:35:10.408Z,43.20
2018-01-11T21:37:40.003Z,32.73
2018-01-11T21:40:08.720Z,42.97
2018-01-11T21:42:36.687Z,39.90
2018-01-11T21:45:04.558Z,39.77
2018-01-11T21:47:32.420Z,39.87
2018-01-11T21:50:00.277Z,36.93
2018-01-11T21:52:29.981Z,42.10
2018-01-11T21:54:57.961Z,42.10
2018-01-11T21:57:32.792Z,41.90
2018-01-11T22:00:00.593Z,41.20
2018-01-11T22:02:34.630Z,40.20
2018-01-11T22:05:04.125Z,40.27
2018-01-11T22:07:35.971Z,36.63
2018-01-11T22:10:03.826Z,35.10
2018-01-11T22:12:31.800Z,35.10
2018-01-11T22:14:59.773Z,38.73
2018-01-11T22:17:29.699Z,38.30
2018-01-11T22:19:59.235Z,42.00
2018-01-11T22:22:28.912Z,38.47
2018-01-11T22:24:56.702Z,38.13
2018-01-11T22:27:27.285Z,39.20
2018-01-11T22:29:55.160Z,42.07
2018-01-11T22:32:27.291Z,38.93
2018-01-11T22:34:58.197Z,42.30
2018-01-11T22:37:26.773Z,34.87
2018-01-11T22:39:56.389Z,40.93
2018-01-11T22:42:24.228Z,38.40
2018-01-11T22:44:52.129Z,40.33
2018-01-11T22:47:23.880Z,37.53
2018-01-11T22:49:53.482Z,38.30
2018-01-11T22:52:22.083Z,42.60
2018-01-11T22:54:50.168Z,36.00
2018-01-11T22:57:18.032Z,45.23
2018-01-11T22:59:45.814Z,41.90
2018-01-11T23:02:13.767Z,41.50
2018-01-11T23:04:46.416Z,50.60
2018-01-11T23:07:14.284Z,36.63
2018-01-11T23:09:43.668Z,36.70
2018-01-11T23:12:12.300Z,37.07
2018-01-11T23:14:55.429Z,45.67
2018-01-11T23:17:23.240Z,47.77
2018-01-11T23:19:53.602Z,43.13
2018-01-11T23:22:21.423Z,36.97
2018-01-11T23:24:55.809Z,48.27
2018-01-11T23:27:23.659Z,41.37
2018-01-11T23:29:52.162Z,45.37
2018-01-11T23:32:21.055Z,36.87
2018-01-11T23:34:50.533Z,37.87
2018-01-11T23:37:20.463Z,43.00
2018-01-11T23:39:48.243Z,38.57
2018-01-11T23:42:15.998Z,40.00
2018-01-11T23:44:46.452Z,42.30
2018-01-11T23:47:16.923Z,40.00
2018-01-11T23:49:45.553Z,37.90
2018-01-11T23:52:16.528Z,39.97
2018-01-11T23:54:45.069Z,42.30
2018-01-11T23:57:12.878Z,36.00
2018-01-11T23:59:42.348Z,42.83
